Time;durP1;ratioP1;P1;durP2;ratioP2;P2;SDS_P1;SDS_P2;PMS_P1;PMS_P2;Temp;Humidity;BMP_temperature;BMP_pressure;BME280_temperature;BME280_humidity;BME280_pressure;Samples;Min_cycle;Max_cycle;Signal;HPM_P1;HPM_P2
2023/10/26 00:02:14;;;;;;;0.83;0.80;;;;;;;9.77;100.00;98530.06;5039116;28;20939;-82
2023/10/26 00:04:41;;;;;;;1.00;0.90;;;;;;;9.78;100.00;98530.94;5024916;28;20301;-77
2023/10/26 00:07:07;;;;;;;1.33;1.00;;;;;;;9.79;100.00;98532.69;5037555;28;20606;-77
2023/10/26 00:09:34;;;;;;;1.30;1.00;;;;;;;9.73;100.00;98538.94;5025015;28;20583;-76
2023/10/26 00:12:00;;;;;;;0.97;0.87;;;;;;;9.85;100.00;98536.09;5028235;28;20764;-77
2023/10/26 00:14:27;;;;;;;1.00;0.90;;;;;;;9.86;100.00;98543.16;5041531;28;20237;-79
2023/10/26 00:16:53;;;;;;;1.47;0.77;;;;;;;9.76;100.00;98543.28;5023409;28;20295;-77
2023/10/26 00:19:20;;;;;;;1.20;0.93;;;;;;;9.69;100.00;98543.38;5022191;28;20204;-78
2023/10/26 00:21:47;;;;;;;0.93;0.90;;;;;;;9.67;100.00;98539.00;5021741;28;20262;-78
2023/10/26 00:24:13;;;;;;;1.40;1.07;;;;;;;9.56;100.00;98536.47;5025606;28;20307;-79
2023/10/26 00:26:40;;;;;;;1.20;1.00;;;;;;;9.46;100.00;98544.53;5027476;28;20200;-79
2023/10/26 00:29:07;;;;;;;1.27;1.00;;;;;;;9.42;100.00;98543.72;5026130;28;20196;-80
2023/10/26 00:31:33;;;;;;;2.63;1.20;;;;;;;9.46;100.00;98550.69;5041070;28;20204;-76
2023/10/26 00:34:02;;;;;;;2.20;1.40;;;;;;;9.38;100.00;98553.44;5023986;28;20216;-78
2023/10/26 00:36:29;;;;;;;1.70;1.13;;;;;;;9.29;100.00;98556.19;5021840;28;20210;-75
2023/10/26 00:38:56;;;;;;;3.87;1.47;;;;;;;9.30;100.00;98557.06;5026605;28;20198;-76
2023/10/26 00:41:22;;;;;;;1.50;1.20;;;;;;;9.40;100.00;98564.84;5024886;28;20200;-76
2023/10/26 00:43:48;;;;;;;2.00;1.40;;;;;;;9.50;100.00;98562.09;5023091;28;20610;-74
2023/10/26 00:46:15;;;;;;;1.83;1.50;;;;;;;9.46;100.00;98570.97;5023641;28;20939;-74
2023/10/26 00:48:42;;;;;;;1.80;1.13;;;;;;;9.58;100.00;98570.81;5022966;28;20288;-74
2023/10/26 00:51:09;;;;;;;3.43;1.50;;;;;;;9.60;100.00;98574.31;5026846;28;20706;-72
2023/10/26 00:53:35;;;;;;;1.60;1.30;;;;;;;9.71;100.00;98581.25;5025200;28;20292;-73
2023/10/26 00:56:03;;;;;;;3.47;1.73;;;;;;;9.79;100.00;98573.19;5020492;28;20251;-76
2023/10/26 00:58:31;;;;;;;2.47;1.53;;;;;;;9.73;100.00;98574.16;5025615;28;20250;-74
2023/10/26 01:00:57;;;;;;;2.77;1.40;;;;;;;9.84;100.00;98581.06;5028254;28;20205;-72
2023/10/26 01:03:27;;;;;;;2.17;1.33;;;;;;;9.76;100.00;98581.19;5025868;28;20310;-75
2023/10/26 01:05:54;;;;;;;1.50;1.17;;;;;;;9.79;100.00;98583.78;5026297;28;20639;-74
2023/10/26 01:08:20;;;;;;;1.60;1.30;;;;;;;9.83;100.00;98587.25;5018820;28;20198;-73
2023/10/26 01:10:47;;;;;;;2.33;1.40;;;;;;;9.75;100.00;98584.72;5017595;28;20206;-73
2023/10/26 01:13:13;;;;;;;1.83;1.50;;;;;;;9.67;100.00;98574.25;5023528;28;20228;-73
2023/10/26 01:15:40;;;;;;;1.93;1.40;;;;;;;9.73;100.00;98591.78;5026916;28;20197;-75
2023/10/26 01:18:06;;;;;;;2.80;1.33;;;;;;;9.77;100.00;98597.91;5024653;28;20213;-75
2023/10/26 01:20:33;;;;;;;2.03;1.50;;;;;;;9.73;100.00;98595.31;5023068;28;20322;-75
2023/10/26 01:22:59;;;;;;;2.50;1.60;;;;;;;9.74;100.00;98604.13;5024121;28;20322;-75
2023/10/26 01:25:25;;;;;;;2.10;1.43;;;;;;;9.73;100.00;98597.06;5023282;28;20200;-74
2023/10/26 01:27:52;;;;;;;2.53;1.40;;;;;;;9.89;100.00;98603.03;5039067;28;20198;-75
2023/10/26 01:30:18;;;;;;;2.17;1.50;;;;;;;9.92;100.00;98603.88;5026339;28;20220;-79
2023/10/26 01:32:45;;;;;;;1.90;1.50;;;;;;;9.87;100.00;98600.41;5021445;28;20189;-76
2023/10/26 01:35:11;;;;;;;2.67;1.70;;;;;;;9.95;100.00;98605.59;5023278;28;20194;-75
2023/10/26 01:37:39;;;;;;;1.53;1.23;;;;;;;9.95;100.00;98602.94;5020506;28;20194;-76
2023/10/26 01:40:08;;;;;;;2.77;1.47;;;;;;;9.96;100.00;98602.06;5026326;28;20686;-78
2023/10/26 01:42:34;;;;;;;1.73;1.30;;;;;;;10.04;100.00;98600.22;5027045;28;20341;-79
2023/10/26 01:45:02;;;;;;;1.60;1.37;;;;;;;10.04;100.00;98595.81;5024282;28;20202;-80
2023/10/26 01:47:28;;;;;;;2.53;1.57;;;;;;;10.05;100.00;98584.31;5019878;28;20463;-82
2023/10/26 01:49:55;;;;;;;2.17;1.50;;;;;;;10.11;100.00;98590.41;5025017;28;20258;-81
2023/10/26 01:52:23;;;;;;;2.33;1.73;;;;;;;10.14;100.00;98595.66;5026695;28;20212;-81
2023/10/26 01:54:50;;;;;;;2.97;1.57;;;;;;;10.20;100.00;98603.50;5024697;28;20276;-80
2023/10/26 01:57:17;;;;;;;3.07;1.50;;;;;;;10.19;100.00;98601.78;5027689;28;20281;-81
2023/10/26 01:59:43;;;;;;;2.27;1.50;;;;;;;10.20;100.00;98606.16;5025382;28;20682;-80
2023/10/26 02:02:09;;;;;;;2.53;1.60;;;;;;;10.16;100.00;98597.41;5026702;28;20194;-78
2023/10/26 02:04:36;;;;;;;3.03;2.00;;;;;;;10.20;100.00;98603.50;5025284;28;20659;-82
2023/10/26 02:07:02;;;;;;;2.57;1.83;;;;;;;10.22;100.00;98609.69;5022603;28;20199;-82
2023/10/26 02:09:29;;;;;;;2.50;1.80;;;;;;;10.29;100.00;98611.34;5023007;28;20661;-82
2023/10/26 02:11:55;;;;;;;2.43;1.70;;;;;;;10.30;100.00;98607.81;5026137;28;20212;-81
2023/10/26 02:14:22;;;;;;;2.53;1.80;;;;;;;10.33;100.00;98603.34;5028614;28;20223;-80
2023/10/26 02:16:48;;;;;;;3.23;1.87;;;;;;;10.33;100.00;98616.56;5024192;28;20286;-80
2023/10/26 02:19:16;;;;;;;3.03;1.90;;;;;;;10.37;100.00;98614.75;5039489;28;20210;-81
2023/10/26 02:21:44;;;;;;;2.80;1.87;;;;;;;10.39;100.00;98607.66;5042710;28;20208;-81
2023/10/26 02:24:11;;;;;;;2.43;1.70;;;;;;;10.32;100.00;98616.59;5020250;28;20219;-82
2023/10/26 02:26:37;;;;;;;9.67;2.30;;;;;;;10.33;100.00;98611.28;5026132;28;20581;-85
2023/10/26 02:29:04;;;;;;;3.00;1.73;;;;;;;10.34;100.00;98618.31;5023938;28;20202;-84
2023/10/26 02:31:30;;;;;;;3.37;2.00;;;;;;;10.29;100.00;98608.69;5022355;28;20192;-82
2023/10/26 02:33:56;;;;;;;3.20;2.30;;;;;;;10.30;100.00;98619.25;5023280;28;20220;-87
2023/10/26 02:36:23;;;;;;;2.67;2.00;;;;;;;10.27;100.00;98627.25;5023796;28;20197;-84
2023/10/26 02:38:50;;;;;;;3.47;2.07;;;;;;;10.19;100.00;98615.88;5023428;28;20203;-86
2023/10/26 02:41:16;;;;;;;2.73;1.90;;;;;;;10.29;100.00;98620.16;5019512;28;20229;-84
2023/10/26 02:43:42;;;;;;;3.60;1.97;;;;;;;10.26;100.00;98611.41;5023613;28;20218;-85
2023/10/26 02:46:09;;;;;;;2.93;2.17;;;;;;;10.31;100.00;98609.56;5022032;28;20205;-83
2023/10/26 02:48:35;;;;;;;4.53;2.10;;;;;;;10.29;100.00;98611.34;5021592;28;20193;-84
2023/10/26 02:51:03;;;;;;;4.20;2.40;;;;;;;10.26;100.00;98608.75;5020416;28;20673;-83
2023/10/26 02:53:29;;;;;;;3.97;2.33;;;;;;;10.30;100.00;98616.63;5022677;28;20213;-83
2023/10/26 02:55:56;;;;;;;3.53;2.77;;;;;;;10.31;100.00;98617.50;5023237;28;20209;-81
2023/10/26 02:58:22;;;;;;;3.03;2.10;;;;;;;10.27;100.00;98618.44;5022724;28;20208;-83
2023/10/26 03:00:48;;;;;;;3.37;2.20;;;;;;;10.35;100.00;98611.25;5023380;28;20201;-83
2023/10/26 03:03:15;;;;;;;4.63;2.70;;;;;;;10.31;100.00;98605.13;5022885;28;20233;-82
2023/10/26 03:05:42;;;;;;;3.10;2.10;;;;;;;10.31;100.00;98613.06;5028346;28;20202;-82
2023/10/26 03:08:09;;;;;;;2.87;2.30;;;;;;;10.32;100.00;98613.94;5023869;28;20288;-82
2023/10/26 03:10:35;;;;;;;3.23;2.40;;;;;;;10.31;100.00;98599.84;5023598;28;20239;-81
2023/10/26 03:13:01;;;;;;;3.07;2.27;;;;;;;10.19;100.00;98594.72;5024110;28;20709;-77
2023/10/26 03:15:28;;;;;;;4.03;2.60;;;;;;;9.98;100.00;98589.69;5023844;28;20196;-74
2023/10/26 03:17:54;;;;;;;4.97;3.27;;;;;;;9.79;100.00;98583.78;5025302;28;20266;-77
2023/10/26 03:20:21;;;;;;;3.23;2.50;;;;;;;9.80;100.00;98590.81;5025212;28;20293;-75
2023/10/26 03:22:47;;;;;;;3.83;2.53;;;;;;;9.65;100.00;98594.53;5032974;28;20297;-72
2023/10/26 03:25:16;;;;;;;4.67;2.60;;;;;;;9.52;100.00;98590.25;5029546;28;20699;-76
2023/10/26 03:27:42;;;;;;;4.17;2.67;;;;;;;9.50;100.00;98584.13;5026397;28;20211;-73
2023/10/26 03:30:09;;;;;;;4.70;2.80;;;;;;;9.43;100.00;98591.25;5019772;28;20304;-73
2023/10/26 03:32:36;;;;;;;4.60;2.97;;;;;;;9.37;100.00;98586.03;5045679;28;20196;-72
2023/10/26 03:35:03;;;;;;;3.87;2.80;;;;;;;9.32;100.00;98587.84;5029919;28;20648;-73
2023/10/26 03:37:30;;;;;;;4.60;2.77;;;;;;;9.18;100.00;98597.66;5025436;28;20636;-71
2023/10/26 03:39:56;;;;;;;4.57;3.13;;;;;;;9.19;100.00;98598.53;5028861;28;20300;-72
2023/10/26 03:42:22;;;;;;;3.60;2.83;;;;;;;9.16;100.00;98594.16;5027587;28;20206;-75
2023/10/26 03:44:49;;;;;;;4.17;2.90;;;;;;;9.07;100.00;98584.56;5029258;28;20230;-75
2023/10/26 03:47:17;;;;;;;4.00;2.80;;;;;;;9.04;100.00;98589.88;5022788;28;20213;-73
2023/10/26 03:49:44;;;;;;;4.13;2.63;;;;;;;8.93;100.00;98597.03;5022593;28;20198;-76
2023/10/26 03:52:11;;;;;;;3.97;2.70;;;;;;;8.73;100.00;98586.63;5022547;28;20285;-73
2023/10/26 03:54:38;;;;;;;5.70;2.93;;;;;;;8.77;100.00;98598.91;5025316;28;20253;-73
2023/10/26 03:57:06;;;;;;;4.83;2.50;;;;;;;8.73;100.00;98602.47;5026781;28;20203;-72
2023/10/26 03:59:32;;;;;;;4.07;2.67;;;;;;;8.83;100.00;98598.00;5025387;28;20253;-75
2023/10/26 04:01:59;;;;;;;4.37;3.00;;;;;;;8.85;100.00;98598.00;5019585;28;20659;-72
2023/10/26 04:04:25;;;;;;;4.43;2.77;;;;;;;8.92;100.00;98587.38;5023766;28;20294;-72
2023/10/26 04:06:52;;;;;;;5.07;3.03;;;;;;;8.99;100.00;98593.47;5022897;28;20199;-77
2023/10/26 04:09:18;;;;;;;4.07;2.90;;;;;;;9.13;100.00;98595.97;5042992;28;20244;-74
2023/10/26 04:11:45;;;;;;;4.20;3.00;;;;;;;9.14;100.00;98597.72;5023344;28;20197;-73
2023/10/26 04:14:11;;;;;;;5.07;3.40;;;;;;;9.13;100.00;98599.47;5061550;22;20400;-70
2023/10/26 04:16:38;;;;;;;6.50;3.23;;;;;;;9.14;100.00;98603.00;5038200;28;20305;-70
2023/10/26 04:19:04;;;;;;;3.37;2.70;;;;;;;9.09;100.00;98609.19;5043493;28;20206;-70
2023/10/26 04:21:31;;;;;;;7.13;3.30;;;;;;;9.15;100.00;98613.53;5047210;28;20674;-70
2023/10/26 04:23:58;;;;;;;6.17;3.00;;;;;;;9.15;100.00;98618.81;5031548;28;20250;-70
2023/10/26 04:26:27;;;;;;;4.73;3.10;;;;;;;9.18;100.00;98613.50;5024337;28;20206;-70
2023/10/26 04:28:53;;;;;;;4.70;2.97;;;;;;;9.29;100.00;98603.72;5018887;28;20208;-70
2023/10/26 04:31:20;;;;;;;4.60;2.87;;;;;;;9.33;100.00;98609.84;5025366;28;20200;-70
2023/10/26 04:33:49;;;;;;;4.43;2.93;;;;;;;9.28;100.00;98611.69;5026454;28;20269;-70
2023/10/26 04:36:15;;;;;;;4.53;2.90;;;;;;;9.27;100.00;98618.72;5022280;28;20200;-70
2023/10/26 04:38:44;;;;;;;4.93;2.87;;;;;;;9.33;100.00;98616.00;5025386;28;20208;-70
2023/10/26 04:41:11;;;;;;;4.40;2.87;;;;;;;9.39;100.00;98620.34;5027393;28;20246;-70
2023/10/26 04:43:37;;;;;;;4.53;3.13;;;;;;;9.43;100.00;98608.88;5023503;28;20228;-70
2023/10/26 04:46:04;;;;;;;3.80;2.80;;;;;;;9.54;100.00;98606.09;5026437;28;20230;-70
2023/10/26 04:48:30;;;;;;;4.27;2.60;;;;;;;9.61;100.00;98603.41;5025507;28;20246;-70
2023/10/26 04:50:57;;;;;;;4.87;2.93;;;;;;;9.62;100.00;98604.28;5028010;28;20603;-70
2023/10/26 04:53:23;;;;;;;5.23;2.57;;;;;;;9.67;100.00;98602.44;5026170;28;20206;-70
2023/10/26 04:55:52;;;;;;;4.30;2.97;;;;;;;9.72;100.00;98613.84;5027944;28;20458;-70
2023/10/26 04:58:18;;;;;;;7.07;3.00;;;;;;;9.72;100.00;98604.13;5022213;28;20199;-70
2023/10/26 05:00:45;;;;;;;6.03;2.90;;;;;;;9.83;100.00;98597.84;5022638;28;20622;-70
2023/10/26 05:03:11;;;;;;;4.10;2.83;;;;;;;9.81;100.00;98599.63;5024285;28;20199;-70
2023/10/26 05:05:38;;;;;;;3.33;2.57;;;;;;;9.80;100.00;98604.03;5024342;28;20282;-70
2023/10/26 05:08:04;;;;;;;4.53;2.80;;;;;;;9.77;100.00;98604.06;5026259;28;20201;-70
2023/10/26 05:10:31;;;;;;;3.57;2.67;;;;;;;9.82;100.00;98598.72;5028065;28;20202;-70
2023/10/26 05:12:57;;;;;;;5.57;2.90;;;;;;;9.84;100.00;98604.88;5026980;28;20663;-70
2023/10/26 05:15:24;;;;;;;4.57;2.57;;;;;;;9.89;100.00;98608.31;5026075;28;20764;-69
2023/10/26 05:17:50;;;;;;;3.83;2.47;;;;;;;9.94;100.00;98603.84;5014222;28;20342;-73
2023/10/26 05:20:17;;;;;;;3.80;2.53;;;;;;;9.95;100.00;98603.81;5024093;28;20197;-73
2023/10/26 05:22:43;;;;;;;6.03;2.80;;;;;;;9.90;100.00;98597.72;5024399;28;20235;-73
2023/10/26 05:25:11;;;;;;;4.57;2.50;;;;;;;9.96;100.00;98604.69;5027690;28;20227;-73
2023/10/26 05:27:38;;;;;;;4.17;2.97;;;;;;;9.94;100.00;98607.38;5023506;28;21196;-72
2023/10/26 05:30:05;;;;;;;4.40;2.87;;;;;;;9.98;100.00;98610.84;5021020;28;20257;-73
2023/10/26 05:32:32;;;;;;;4.70;2.70;;;;;;;10.01;100.00;98606.44;5021627;28;20600;-72
2023/10/26 05:34:58;;;;;;;4.43;2.40;;;;;;;10.05;100.00;98610.78;5028045;28;20215;-72
2023/10/26 05:37:25;;;;;;;5.60;2.40;;;;;;;10.05;100.00;98605.47;5025762;28;20565;-72
2023/10/26 05:39:51;;;;;;;3.77;2.43;;;;;;;9.99;100.00;98602.91;5028341;28;20206;-72
2023/10/26 05:42:18;;;;;;;5.53;2.50;;;;;;;9.93;100.00;98595.03;5029291;28;20208;-76
2023/10/26 05:44:44;;;;;;;3.60;2.67;;;;;;;9.94;100.00;98596.78;5026347;28;20222;-72
2023/10/26 05:47:11;;;;;;;5.33;2.50;;;;;;;9.97;100.00;98601.16;5021383;28;20254;-72
2023/10/26 05:49:37;;;;;;;3.97;2.83;;;;;;;9.96;100.00;98597.66;5028863;28;20290;-71
2023/10/26 05:52:04;;;;;;;3.57;2.67;;;;;;;9.94;100.00;98599.44;5029019;28;20203;-72
2023/10/26 05:54:31;;;;;;;4.37;2.70;;;;;;;9.95;100.00;98600.31;5029242;28;20219;-72
2023/10/26 05:56:57;;;;;;;3.80;2.87;;;;;;;9.92;100.00;98590.66;5022350;28;20200;-71
2023/10/26 05:59:24;;;;;;;4.73;2.80;;;;;;;9.93;100.00;98591.53;5028276;28;20207;-71
2023/10/26 06:01:50;;;;;;;4.33;2.80;;;;;;;9.93;100.00;98586.22;5026467;28;20239;-72
2023/10/26 06:04:18;;;;;;;4.33;2.50;;;;;;;9.89;100.00;98597.75;5029421;28;20223;-71
2023/10/26 06:06:44;;;;;;;4.07;2.80;;;;;;;9.84;100.00;98597.81;5024956;28;20203;-73
2023/10/26 06:09:11;;;;;;;4.43;3.00;;;;;;;9.80;100.00;98596.09;5028729;28;20212;-72
2023/10/26 06:11:40;;;;;;;4.00;3.00;;;;;;;9.76;100.00;98596.16;5028534;28;20667;-71
2023/10/26 06:14:07;;;;;;;4.27;2.80;;;;;;;9.71;100.00;98598.88;5025693;28;20222;-72
2023/10/26 06:16:33;;;;;;;3.73;2.70;;;;;;;9.68;100.00;98594.50;5026576;28;20682;-72
2023/10/26 06:19:00;;;;;;;4.37;2.80;;;;;;;9.74;100.00;98602.34;5027501;28;20250;-71
2023/10/26 06:21:27;;;;;;;4.23;2.80;;;;;;;9.77;100.00;98596.16;5029271;28;20200;-71
2023/10/26 06:23:54;;;;;;;3.90;2.70;;;;;;;9.84;100.00;98608.38;5025809;28;20255;-71
2023/10/26 06:26:20;;;;;;;5.40;2.90;;;;;;;9.87;100.00;98607.47;5028764;28;20261;-72
2023/10/26 06:28:46;;;;;;;4.43;2.30;;;;;;;9.85;100.00;98614.53;5028929;28;20210;-72
2023/10/26 06:31:16;;;;;;;3.83;2.60;;;;;;;9.97;100.00;98617.91;5028758;28;20195;-71
2023/10/26 06:33:43;;;;;;;3.10;2.57;;;;;;;10.01;100.00;98624.94;5028564;28;20225;-72
2023/10/26 06:36:10;;;;;;;6.33;2.90;;;;;;;10.09;100.00;98621.31;5027724;28;20278;-72
2023/10/26 06:38:38;;;;;;;3.47;2.47;;;;;;;10.12;100.00;98619.50;5029207;28;20212;-73
2023/10/26 06:41:06;;;;;;;3.40;2.60;;;;;;;10.15;100.00;98621.22;5030813;28;20675;-73
2023/10/26 06:43:33;;;;;;;3.37;2.47;;;;;;;10.23;100.00;98616.72;5025991;28;20224;-72
2023/10/26 06:46:00;;;;;;;2.50;2.10;;;;;;;10.20;100.00;98616.75;5033213;28;20497;-72
2023/10/26 06:48:27;;;;;;;3.50;2.70;;;;;;;10.22;100.00;98622.91;5031895;28;20202;-72
2023/10/26 06:51:01;;;;;;;3.17;2.17;;;;;;;10.27;100.00;98618.44;5031889;28;20210;-73
2023/10/26 06:53:28;;;;;;;3.23;2.50;;;;;;;10.24;100.00;98624.66;5030415;28;20223;-72
2023/10/26 06:55:56;;;;;;;3.27;2.23;;;;;;;10.23;100.00;98622.03;5032871;28;20566;-72
2023/10/26 06:58:22;;;;;;;2.97;2.30;;;;;;;10.24;100.00;98618.47;5032557;28;20208;-72
2023/10/26 07:00:49;;;;;;;4.27;2.27;;;;;;;10.22;100.00;98607.03;5027765;28;20208;-72
2023/10/26 07:03:18;;;;;;;2.97;2.13;;;;;;;10.18;100.00;98598.25;5027622;28;20197;-73
2023/10/26 07:05:47;;;;;;;4.43;2.70;;;;;;;10.15;100.00;98608.00;5031549;28;20592;-73
2023/10/26 07:08:14;;;;;;;3.90;2.23;;;;;;;10.13;100.00;98601.84;5032371;28;20275;-72
2023/10/26 07:10:40;;;;;;;3.73;2.10;;;;;;;10.16;100.00;98610.63;5031487;28;20263;-72
2023/10/26 07:13:08;;;;;;;3.53;2.30;;;;;;;10.25;100.00;98609.66;5030318;28;20302;-73
2023/10/26 07:15:35;;;;;;;2.60;1.93;;;;;;;10.27;100.00;98613.16;5031896;28;20211;-72
2023/10/26 07:18:02;;;;;;;2.53;1.93;;;;;;;10.31;100.00;98610.44;5031404;28;20295;-72
2023/10/26 07:20:28;;;;;;;2.50;1.93;;;;;;;10.36;100.00;98613.88;5026482;28;20718;-71
2023/10/26 07:22:55;;;;;;;2.83;1.90;;;;;;;10.35;100.00;98613.91;5030123;28;20285;-73
2023/10/26 07:25:21;;;;;;;2.73;2.20;;;;;;;10.39;100.00;98610.31;5032672;28;20261;-72
2023/10/26 07:27:48;;;;;;;4.63;2.00;;;;;;;10.43;100.00;98609.41;5027913;28;20286;-73
2023/10/26 07:30:14;;;;;;;2.50;1.83;;;;;;;10.53;100.00;98599.53;5032104;28;20289;-72
2023/10/26 07:32:41;;;;;;;3.43;2.30;;;;;;;10.60;100.00;98601.19;5030056;28;20205;-72
2023/10/26 07:35:08;;;;;;;3.13;2.00;;;;;;;10.73;100.00;98591.28;5031532;28;20246;-73
2023/10/26 07:37:34;;;;;;;4.47;2.37;;;;;;;10.85;100.00;98591.97;5025193;28;20206;-72
2023/10/26 07:40:03;;;;;;;4.70;2.37;;;;;;;10.95;100.00;98588.25;5032180;28;20201;-73
2023/10/26 07:42:50;;;;;;;4.87;2.40;;;;;;;11.03;100.00;98585.47;5030014;28;20238;-74
2023/10/26 07:45:16;;;;;;;6.47;2.53;;;;;;;11.12;100.00;98580.00;5026168;28;20223;-77
2023/10/26 07:47:43;;;;;;;3.53;2.47;;;;;;;11.10;100.00;98573.88;5030320;28;20538;-75
2023/10/26 07:50:09;;;;;;;2.77;2.43;;;;;;;11.15;100.00;98582.59;5031156;28;20214;-74
2023/10/26 07:52:36;;;;;;;5.37;2.60;;;;;;;11.16;100.00;98586.13;5031085;28;20621;-74
2023/10/26 07:55:02;;;;;;;3.13;2.40;;;;;;;11.12;100.00;98565.88;5030786;28;20216;-75
2023/10/26 07:57:29;;;;;;;3.30;2.43;;;;;;;11.07;100.00;98570.41;5031667;28;20278;-75
2023/10/26 07:59:55;;;;;;;3.00;2.20;;;;;;;11.04;100.00;98573.97;5031253;28;20211;-75
2023/10/26 08:02:22;;;;;;;3.47;2.60;;;;;;;11.02;100.00;98581.06;5025862;28;20246;-74
2023/10/26 08:04:49;;;;;;;3.30;2.33;;;;;;;11.05;100.00;98591.63;5030894;28;20303;-76
2023/10/26 08:07:16;;;;;;;4.77;2.30;;;;;;;11.11;100.00;98591.50;5033002;28;20200;-74
2023/10/26 08:09:42;;;;;;;3.63;2.63;;;;;;;11.19;100.00;98592.22;5032052;28;20288;-75
2023/10/26 08:12:10;;;;;;;4.20;2.50;;;;;;;11.27;100.00;98597.41;5028661;28;20207;-77
2023/10/26 08:14:36;;;;;;;3.03;2.23;;;;;;;11.37;100.00;98590.16;5030193;28;20394;-77
2023/10/26 08:17:25;;;;;;;3.00;2.10;;;;;;;11.41;100.00;98590.09;5032050;28;20207;-75
2023/10/26 08:19:53;;;;;;;2.90;2.40;;;;;;;11.46;100.00;98593.50;5027958;28;20217;-80
2023/10/26 08:22:21;;;;;;;2.83;1.80;;;;;;;11.57;100.00;98594.16;5031386;28;20205;-81
2023/10/26 08:24:48;;;;;;;4.73;2.07;;;;;;;11.71;98.16;98601.88;5030342;28;20231;-81
2023/10/26 08:27:14;;;;;;;3.03;1.80;;;;;;;11.97;96.66;98603.13;5030870;28;20294;-80
2023/10/26 08:29:41;;;;;;;2.73;1.90;;;;;;;12.33;95.54;98610.31;5029881;28;20250;-82
2023/10/26 08:32:07;;;;;;;2.23;1.93;;;;;;;12.64;91.46;98601.66;5029976;28;20207;-82
2023/10/26 08:34:34;;;;;;;2.43;1.60;;;;;;;12.85;90.56;98602.03;5031469;28;20219;-82
2023/10/26 08:37:01;;;;;;;2.03;1.83;;;;;;;12.91;90.16;98606.31;5020591;28;20230;-80
2023/10/26 08:39:39;;;;;;;2.77;1.80;;;;;;;12.81;88.40;98602.13;5029705;28;20203;-79
2023/10/26 08:42:06;;;;;;;1.87;1.43;;;;;;;12.70;88.55;98615.66;5029034;28;20666;-76
2023/10/26 08:44:32;;;;;;;2.50;1.80;;;;;;;12.63;87.90;98619.38;5030006;28;20219;-75
2023/10/26 08:47:02;;;;;;;2.00;1.70;;;;;;;12.59;87.85;98624.78;5028307;28;20200;-76
2023/10/26 08:49:33;;;;;;;3.07;1.90;;;;;;;12.66;89.22;98626.38;5030893;28;20710;-76
2023/10/26 08:51:59;;;;;;;2.00;1.80;;;;;;;12.75;88.10;98628.81;5030701;28;20632;-74
2023/10/26 08:54:26;;;;;;;2.60;2.17;;;;;;;12.94;88.45;98635.47;5025794;28;20225;-74
2023/10/26 08:56:54;;;;;;;3.93;1.87;;;;;;;13.13;87.31;98642.03;5030885;28;20551;-73
2023/10/26 08:59:23;;;;;;;3.10;2.00;;;;;;;13.26;87.00;98649.78;5030440;28;20592;-74
2023/10/26 09:01:50;;;;;;;3.70;2.63;;;;;;;13.25;86.10;98642.72;5030440;28;20203;-73
2023/10/26 09:04:16;;;;;;;2.73;1.73;;;;;;;13.23;84.59;98645.41;5026605;28;20227;-73
2023/10/26 09:06:48;;;;;;;2.53;1.70;;;;;;;13.20;86.67;98650.78;5029250;28;20223;-73
2023/10/26 09:09:16;;;;;;;2.73;1.70;;;;;;;13.24;85.84;98643.63;5030543;28;20207;-73
2023/10/26 09:11:46;;;;;;;2.30;1.77;;;;;;;13.46;87.62;98644.78;5028478;28;20200;-74
2023/10/26 09:14:17;;;;;;;2.47;1.53;;;;;;;13.68;84.09;98637.13;5030613;28;20258;-74
2023/10/26 09:16:48;;;;;;;2.87;1.50;;;;;;;13.79;81.73;98646.56;5029601;28;20207;-74
2023/10/26 09:19:18;;;;;;;2.10;1.63;;;;;;;13.88;81.13;98648.09;5029668;28;20211;-74
2023/10/26 09:21:49;;;;;;;2.20;1.33;;;;;;;13.82;79.40;98655.38;5025650;28;20205;-74
2023/10/26 09:24:21;;;;;;;1.30;1.20;;;;;;;13.87;79.86;98664.97;5030557;28;20353;-74
2023/10/26 09:26:48;;;;;;;2.63;1.37;;;;;;;13.86;77.56;98668.53;5030016;28;20230;-73
2023/10/26 09:29:14;;;;;;;2.17;1.20;;;;;;;13.98;78.71;98657.53;5029907;28;20199;-74
2023/10/26 09:31:54;;;;;;;3.03;1.60;;;;;;;14.06;76.63;98657.34;5023496;28;20206;-74
2023/10/26 09:34:25;;;;;;;2.37;1.50;;;;;;;14.31;76.68;98652.16;5026837;28;20281;-74
2023/10/26 09:37:02;;;;;;;3.30;1.50;;;;;;;14.23;75.98;98647.06;5028567;28;20290;-73
2023/10/26 09:39:33;;;;;;;1.90;1.40;;;;;;;14.32;75.05;98656.59;5027348;28;20195;-73
2023/10/26 09:42:01;;;;;;;1.60;1.47;;;;;;;14.04;73.15;98654.75;5028626;28;20196;-74
2023/10/26 09:44:29;;;;;;;2.00;1.23;;;;;;;13.84;75.00;98654.41;5028752;28;20231;-74
2023/10/26 09:46:56;;;;;;;2.33;1.30;;;;;;;14.02;75.43;98645.06;5027534;28;20223;-72
2023/10/26 09:49:25;;;;;;;2.63;1.57;;;;;;;14.01;75.55;98644.19;5026870;28;20200;-74
2023/10/26 09:51:52;;;;;;;2.53;1.57;;;;;;;14.17;75.87;98646.38;5029476;28;20222;-74
2023/10/26 09:54:24;;;;;;;2.13;1.30;;;;;;;14.35;74.53;98652.03;5029869;28;20247;-71
2023/10/26 09:56:59;;;;;;;2.73;1.40;;;;;;;14.46;73.62;98649.09;5025859;28;20442;-73
2023/10/26 09:59:27;;;;;;;1.77;1.50;;;;;;;14.40;71.82;98641.25;5029883;28;20643;-74
2023/10/26 10:01:54;;;;;;;1.33;1.10;;;;;;;14.55;72.17;98646.16;5028039;28;20213;-71
2023/10/26 10:04:37;;;;;;;1.67;1.00;;;;;;;14.64;72.64;98655.66;5025764;28;20643;-73
2023/10/26 10:07:04;;;;;;;5.23;1.20;;;;;;;14.68;72.47;98647.50;5029544;28;20215;-73
2023/10/26 10:09:31;;;;;;;1.10;1.00;;;;;;;14.68;71.46;98652.84;5029365;28;20202;-73
2023/10/26 10:12:03;;;;;;;1.70;1.30;;;;;;;14.79;72.26;98659.63;5028133;28;20203;-73
2023/10/26 10:14:48;;;;;;;1.33;1.00;;;;;;;14.67;72.00;98648.44;5023453;28;20228;-74
2023/10/26 10:17:16;;;;;;;1.70;1.00;;;;;;;14.57;73.03;98649.66;5029377;28;20204;-76
2023/10/26 10:19:45;;;;;;;1.00;0.90;;;;;;;14.52;73.26;98640.06;5027969;28;20621;-74
2023/10/26 10:22:48;;;;;;;2.63;0.90;;;;;;;14.63;74.03;98641.47;5021310;28;20195;-73
2023/10/26 10:25:23;;;;;;;2.00;1.30;;;;;;;14.61;72.53;98637.97;5024854;28;20293;-74
2023/10/26 10:27:49;;;;;;;1.80;1.03;;;;;;;14.66;72.28;98632.50;5028351;28;20195;-74
2023/10/26 10:30:23;;;;;;;1.60;1.30;;;;;;;14.68;72.96;98628.84;5026842;28;20222;-74
2023/10/26 10:32:51;;;;;;;1.30;1.00;;;;;;;14.80;72.45;98638.25;5029243;28;20199;-73
2023/10/26 10:35:21;;;;;;;1.77;1.27;;;;;;;14.87;72.80;98641.63;5026399;28;20208;-74
2023/10/26 10:38:15;;;;;;;1.43;1.30;;;;;;;14.80;72.89;98622.25;5029404;28;20204;-73
2023/10/26 10:40:54;;;;;;;2.37;1.57;;;;;;;14.75;72.42;98616.22;5025852;28;20188;-74
2023/10/26 10:43:37;;;;;;;1.70;1.30;;;;;;;14.74;75.69;98618.00;5028389;28;20218;-74
2023/10/26 10:46:26;;;;;;;1.97;1.40;;;;;;;14.71;77.39;98603.91;5027632;28;20219;-73
2023/10/26 10:48:57;;;;;;;3.17;1.50;;;;;;;14.62;79.26;98617.53;5023350;28;20202;-73
2023/10/26 10:51:35;;;;;;;2.73;1.77;;;;;;;14.67;77.67;98597.81;5029006;28;20195;-73
2023/10/26 10:54:04;;;;;;;2.80;1.53;;;;;;;14.69;78.94;98595.09;5028959;28;20230;-73
2023/10/26 10:56:48;;;;;;;3.97;1.50;;;;;;;14.50;81.29;98612.59;5026476;28;20203;-73
2023/10/26 10:59:29;;;;;;;2.40;1.50;;;;;;;14.53;80.61;98597.38;5029509;28;20195;-73
2023/10/26 11:02:16;;;;;;;1.43;1.30;;;;;;;14.41;84.86;98603.94;5025908;28;20218;-75
2023/10/26 11:04:55;;;;;;;1.70;1.17;;;;;;;14.29;83.77;98598.97;5028511;28;20589;-72
2023/10/26 11:07:38;;;;;;;1.57;1.20;;;;;;;14.29;83.68;98611.41;5028912;28;20202;-74
2023/10/26 11:10:05;;;;;;;1.57;1.30;;;;;;;14.25;81.40;98610.63;5027418;28;20282;-75
2023/10/26 11:12:32;;;;;;;2.13;1.20;;;;;;;14.07;80.62;98600.53;5028284;28;20198;-74
2023/10/26 11:14:58;;;;;;;2.90;1.20;;;;;;;14.17;80.30;98606.47;5026922;28;20710;-74
2023/10/26 11:17:26;;;;;;;1.63;1.33;;;;;;;14.11;83.28;98608.38;5027665;28;20297;-74
2023/10/26 11:19:53;;;;;;;3.10;1.60;;;;;;;14.17;84.46;98599.34;5027646;28;20200;-74
2023/10/26 11:22:21;;;;;;;1.80;1.40;;;;;;;14.14;82.65;98594.13;5027528;28;20290;-72
2023/10/26 11:24:49;;;;;;;2.97;1.50;;;;;;;14.39;84.28;98594.22;5027529;28;20282;-74
2023/10/26 11:27:19;;;;;;;3.10;1.40;;;;;;;14.43;82.47;98584.41;5031712;28;20230;-74
2023/10/26 11:30:00;;;;;;;3.50;1.13;;;;;;;14.44;81.74;98584.34;5031402;28;20718;-75
2023/10/26 11:32:28;;;;;;;1.80;1.57;;;;;;;14.36;81.00;98575.69;5031181;28;20219;-72
2023/10/26 11:35:13;;;;;;;1.80;1.33;;;;;;;14.24;81.10;98576.94;5026379;28;20231;-73
2023/10/26 11:37:45;;;;;;;1.33;1.23;;;;;;;14.10;84.61;98576.50;5032374;28;20216;-72